sensor_id;sensor_type;location;lat;lon;timestamp;P1;durP1;ratioP1;P2;durP2;ratioP2
35324;SDS011;35135;47.510;19.036;2023-10-09T00:01:24;1.60;;;1.08;;
35324;SDS011;35135;47.510;19.036;2023-10-09T00:03:51;1.60;;;0.90;;
35324;SDS011;35135;47.510;19.036;2023-10-09T00:06:20;1.90;;;0.90;;
35324;SDS011;35135;47.510;19.036;2023-10-09T00:08:56;1.23;;;0.70;;
35324;SDS011;35135;47.510;19.036;2023-10-09T00:11:22;1.15;;;0.70;;
35324;SDS011;35135;47.510;19.036;2023-10-09T00:13:54;2.33;;;1.00;;
35324;SDS011;35135;47.510;19.036;2023-10-09T00:16:24;1.98;;;1.00;;
35324;SDS011;35135;47.510;19.036;2023-10-09T00:19:11;1.42;;;0.80;;
35324;SDS011;35135;47.510;19.036;2023-10-09T00:21:42;1.38;;;0.90;;
35324;SDS011;35135;47.510;19.036;2023-10-09T00:24:09;1.45;;;0.82;;
35324;SDS011;35135;47.510;19.036;2023-10-09T00:26:50;2.53;;;1.00;;
35324;SDS011;35135;47.510;19.036;2023-10-09T00:29:17;1.45;;;0.90;;
35324;SDS011;35135;47.510;19.036;2023-10-09T00:31:54;1.33;;;0.73;;
35324;SDS011;35135;47.510;19.036;2023-10-09T00:34:28;1.45;;;1.00;;
35324;SDS011;35135;47.510;19.036;2023-10-09T00:36:54;1.95;;;1.10;;
35324;SDS011;35135;47.510;19.036;2023-10-09T00:39:21;1.42;;;0.90;;
35324;SDS011;35135;47.510;19.036;2023-10-09T00:42:08;1.17;;;0.70;;
35324;SDS011;35135;47.510;19.036;2023-10-09T00:44:37;1.60;;;1.00;;
35324;SDS011;35135;47.510;19.036;2023-10-09T00:47:13;2.30;;;0.90;;
35324;SDS011;35135;47.510;19.036;2023-10-09T00:49:50;1.58;;;1.08;;
35324;SDS011;35135;47.510;19.036;2023-10-09T00:52:38;1.83;;;1.05;;
35324;SDS011;35135;47.510;19.036;2023-10-09T00:55:04;1.42;;;0.82;;
35324;SDS011;35135;47.510;19.036;2023-10-09T00:57:39;1.08;;;0.70;;
35324;SDS011;35135;47.510;19.036;2023-10-09T01:00:07;1.77;;;1.00;;
35324;SDS011;35135;47.510;19.036;2023-10-09T01:02:48;1.08;;;0.70;;
35324;SDS011;35135;47.510;19.036;2023-10-09T01:05:17;1.35;;;0.80;;
35324;SDS011;35135;47.510;19.036;2023-10-09T01:07:47;1.90;;;1.00;;
35324;SDS011;35135;47.510;19.036;2023-10-09T01:10:13;1.80;;;0.90;;
35324;SDS011;35135;47.510;19.036;2023-10-09T01:12:42;1.52;;;0.80;;
35324;SDS011;35135;47.510;19.036;2023-10-09T01:15:09;1.35;;;0.75;;
35324;SDS011;35135;47.510;19.036;2023-10-09T01:17:55;1.63;;;0.95;;
35324;SDS011;35135;47.510;19.036;2023-10-09T01:20:23;1.17;;;0.80;;
35324;SDS011;35135;47.510;19.036;2023-10-09T01:22:55;1.20;;;0.90;;
35324;SDS011;35135;47.510;19.036;2023-10-09T01:25:21;1.30;;;0.80;;
35324;SDS011;35135;47.510;19.036;2023-10-09T01:27:46;1.08;;;0.68;;
35324;SDS011;35135;47.510;19.036;2023-10-09T01:30:12;1.67;;;0.80;;
35324;SDS011;35135;47.510;19.036;2023-10-09T01:32:39;0.90;;;0.70;;
35324;SDS011;35135;47.510;19.036;2023-10-09T01:35:05;1.58;;;0.90;;
35324;SDS011;35135;47.510;19.036;2023-10-09T01:37:44;1.10;;;0.70;;
35324;SDS011;35135;47.510;19.036;2023-10-09T01:40:14;1.23;;;0.77;;
35324;SDS011;35135;47.510;19.036;2023-10-09T01:43:02;1.33;;;0.80;;
35324;SDS011;35135;47.510;19.036;2023-10-09T01:45:29;1.52;;;0.82;;
35324;SDS011;35135;47.510;19.036;2023-10-09T01:47:54;1.33;;;0.95;;
35324;SDS011;35135;47.510;19.036;2023-10-09T01:50:20;1.65;;;0.80;;
35324;SDS011;35135;47.510;19.036;2023-10-09T01:52:55;1.20;;;1.00;;
35324;SDS011;35135;47.510;19.036;2023-10-09T01:55:21;1.38;;;0.77;;
35324;SDS011;35135;47.510;19.036;2023-10-09T01:58:08;1.58;;;0.90;;
35324;SDS011;35135;47.510;19.036;2023-10-09T02:00:42;1.55;;;0.90;;
35324;SDS011;35135;47.510;19.036;2023-10-09T02:03:13;1.20;;;0.87;;
35324;SDS011;35135;47.510;19.036;2023-10-09T02:05:48;0.85;;;0.63;;
35324;SDS011;35135;47.510;19.036;2023-10-09T02:08:16;0.90;;;0.77;;
35324;SDS011;35135;47.510;19.036;2023-10-09T02:10:52;1.38;;;0.85;;
35324;SDS011;35135;47.510;19.036;2023-10-09T02:13:21;1.05;;;0.70;;
35324;SDS011;35135;47.510;19.036;2023-10-09T02:15:55;1.40;;;0.90;;
35324;SDS011;35135;47.510;19.036;2023-10-09T02:18:21;1.15;;;0.77;;
35324;SDS011;35135;47.510;19.036;2023-10-09T02:20:48;1.33;;;0.80;;
35324;SDS011;35135;47.510;19.036;2023-10-09T02:23:37;0.93;;;0.70;;
35324;SDS011;35135;47.510;19.036;2023-10-09T02:26:03;0.90;;;0.68;;
35324;SDS011;35135;47.510;19.036;2023-10-09T02:28:31;1.73;;;1.10;;
35324;SDS011;35135;47.510;19.036;2023-10-09T02:31:00;1.30;;;0.75;;
35324;SDS011;35135;47.510;19.036;2023-10-09T02:33:46;1.92;;;1.10;;
35324;SDS011;35135;47.510;19.036;2023-10-09T02:36:13;1.23;;;0.75;;
35324;SDS011;35135;47.510;19.036;2023-10-09T02:38:39;1.00;;;0.60;;
35324;SDS011;35135;47.510;19.036;2023-10-09T02:41:07;1.10;;;0.88;;
35324;SDS011;35135;47.510;19.036;2023-10-09T02:46:12;1.23;;;0.93;;
35324;SDS011;35135;47.510;19.036;2023-10-09T02:48:46;1.20;;;0.80;;
35324;SDS011;35135;47.510;19.036;2023-10-09T02:51:16;1.38;;;0.93;;
35324;SDS011;35135;47.510;19.036;2023-10-09T02:53:54;0.93;;;0.60;;
35324;SDS011;35135;47.510;19.036;2023-10-09T02:56:22;1.00;;;0.60;;
35324;SDS011;35135;47.510;19.036;2023-10-09T02:59:08;1.00;;;0.63;;
35324;SDS011;35135;47.510;19.036;2023-10-09T03:01:35;1.20;;;0.93;;
35324;SDS011;35135;47.510;19.036;2023-10-09T03:04:04;1.10;;;0.80;;
35324;SDS011;35135;47.510;19.036;2023-10-09T03:06:36;0.80;;;0.65;;
35324;SDS011;35135;47.510;19.036;2023-10-09T03:09:08;1.25;;;0.85;;
35324;SDS011;35135;47.510;19.036;2023-10-09T03:11:51;1.27;;;0.85;;
35324;SDS011;35135;47.510;19.036;2023-10-09T03:14:22;1.33;;;0.90;;
35324;SDS011;35135;47.510;19.036;2023-10-09T03:16:54;1.25;;;0.80;;
35324;SDS011;35135;47.510;19.036;2023-10-09T03:19:27;1.33;;;1.02;;
35324;SDS011;35135;47.510;19.036;2023-10-09T03:21:54;1.73;;;0.90;;
35324;SDS011;35135;47.510;19.036;2023-10-09T03:24:24;1.45;;;0.90;;
35324;SDS011;35135;47.510;19.036;2023-10-09T03:26:52;0.98;;;0.75;;
35324;SDS011;35135;47.510;19.036;2023-10-09T03:29:21;1.02;;;0.70;;
35324;SDS011;35135;47.510;19.036;2023-10-09T03:31:47;1.75;;;0.98;;
35324;SDS011;35135;47.510;19.036;2023-10-09T03:34:15;1.75;;;0.90;;
35324;SDS011;35135;47.510;19.036;2023-10-09T03:36:43;1.55;;;0.90;;
35324;SDS011;35135;47.510;19.036;2023-10-09T03:39:16;0.80;;;0.60;;
35324;SDS011;35135;47.510;19.036;2023-10-09T03:42:00;1.00;;;0.80;;
35324;SDS011;35135;47.510;19.036;2023-10-09T03:44:30;1.20;;;0.82;;
35324;SDS011;35135;47.510;19.036;2023-10-09T03:46:58;1.38;;;0.93;;
35324;SDS011;35135;47.510;19.036;2023-10-09T03:49:24;2.17;;;0.70;;
35324;SDS011;35135;47.510;19.036;2023-10-09T03:51:51;2.30;;;0.80;;
35324;SDS011;35135;47.510;19.036;2023-10-09T03:54:17;1.33;;;0.75;;
35324;SDS011;35135;47.510;19.036;2023-10-09T03:56:47;1.00;;;0.70;;
35324;SDS011;35135;47.510;19.036;2023-10-09T03:59:19;1.10;;;0.80;;
35324;SDS011;35135;47.510;19.036;2023-10-09T04:01:46;1.45;;;0.98;;
35324;SDS011;35135;47.510;19.036;2023-10-09T04:04:13;1.27;;;0.90;;
35324;SDS011;35135;47.510;19.036;2023-10-09T04:06:39;1.15;;;0.90;;
35324;SDS011;35135;47.510;19.036;2023-10-09T04:09:06;1.13;;;0.70;;
35324;SDS011;35135;47.510;19.036;2023-10-09T04:11:46;1.02;;;0.75;;
35324;SDS011;35135;47.510;19.036;2023-10-09T04:14:35;1.15;;;0.70;;
35324;SDS011;35135;47.510;19.036;2023-10-09T04:17:09;1.30;;;0.90;;
35324;SDS011;35135;47.510;19.036;2023-10-09T04:19:50;2.17;;;0.95;;
35324;SDS011;35135;47.510;19.036;2023-10-09T04:22:34;2.05;;;0.95;;
35324;SDS011;35135;47.510;19.036;2023-10-09T04:25:21;1.13;;;0.80;;
35324;SDS011;35135;47.510;19.036;2023-10-09T04:27:59;1.40;;;0.60;;
35324;SDS011;35135;47.510;19.036;2023-10-09T04:30:37;1.30;;;0.90;;
35324;SDS011;35135;47.510;19.036;2023-10-09T04:33:11;1.08;;;0.80;;
35324;SDS011;35135;47.510;19.036;2023-10-09T04:36:03;1.27;;;0.80;;
35324;SDS011;35135;47.510;19.036;2023-10-09T04:38:42;1.52;;;1.02;;
35324;SDS011;35135;47.510;19.036;2023-10-09T04:41:20;1.42;;;0.70;;
35324;SDS011;35135;47.510;19.036;2023-10-09T04:43:52;1.08;;;0.65;;
35324;SDS011;35135;47.510;19.036;2023-10-09T04:46:29;1.73;;;0.85;;
35324;SDS011;35135;47.510;19.036;2023-10-09T04:49:08;0.88;;;0.70;;
35324;SDS011;35135;47.510;19.036;2023-10-09T04:51:52;0.80;;;0.60;;
35324;SDS011;35135;47.510;19.036;2023-10-09T04:54:30;1.30;;;0.90;;
35324;SDS011;35135;47.510;19.036;2023-10-09T04:57:25;1.23;;;0.73;;
35324;SDS011;35135;47.510;19.036;2023-10-09T04:59:51;1.40;;;0.90;;
35324;SDS011;35135;47.510;19.036;2023-10-09T05:02:16;1.20;;;0.80;;
35324;SDS011;35135;47.510;19.036;2023-10-09T05:04:45;1.85;;;0.80;;
35324;SDS011;35135;47.510;19.036;2023-10-09T05:07:26;1.17;;;0.75;;
35324;SDS011;35135;47.510;19.036;2023-10-09T05:10:11;1.42;;;0.90;;
35324;SDS011;35135;47.510;19.036;2023-10-09T05:12:42;1.10;;;0.80;;
35324;SDS011;35135;47.510;19.036;2023-10-09T05:15:13;2.60;;;0.90;;
35324;SDS011;35135;47.510;19.036;2023-10-09T05:17:39;5.43;;;1.00;;
35324;SDS011;35135;47.510;19.036;2023-10-09T05:20:15;1.75;;;1.00;;
35324;SDS011;35135;47.510;19.036;2023-10-09T05:22:53;3.90;;;1.10;;
35324;SDS011;35135;47.510;19.036;2023-10-09T05:25:44;6.43;;;1.70;;
35324;SDS011;35135;47.510;19.036;2023-10-09T05:28:20;8.63;;;2.10;;
35324;SDS011;35135;47.510;19.036;2023-10-09T05:31:07;7.90;;;2.28;;
35324;SDS011;35135;47.510;19.036;2023-10-09T05:33:35;15.02;;;1.83;;
35324;SDS011;35135;47.510;19.036;2023-10-09T05:36:03;11.68;;;2.35;;
35324;SDS011;35135;47.510;19.036;2023-10-09T05:38:48;12.02;;;2.10;;
35324;SDS011;35135;47.510;19.036;2023-10-09T05:41:24;10.10;;;2.72;;
35324;SDS011;35135;47.510;19.036;2023-10-09T05:44:10;10.43;;;2.28;;
35324;SDS011;35135;47.510;19.036;2023-10-09T05:46:54;9.07;;;2.00;;
35324;SDS011;35135;47.510;19.036;2023-10-09T05:49:49;8.98;;;2.40;;
35324;SDS011;35135;47.510;19.036;2023-10-09T05:52:40;7.75;;;2.38;;
35324;SDS011;35135;47.510;19.036;2023-10-09T05:55:06;14.38;;;2.80;;
35324;SDS011;35135;47.510;19.036;2023-10-09T05:57:53;14.18;;;2.60;;
35324;SDS011;35135;47.510;19.036;2023-10-09T06:00:20;11.30;;;2.47;;
35324;SDS011;35135;47.510;19.036;2023-10-09T06:03:04;13.25;;;2.55;;
35324;SDS011;35135;47.510;19.036;2023-10-09T06:05:45;7.38;;;2.42;;
35324;SDS011;35135;47.510;19.036;2023-10-09T06:08:27;11.55;;;3.22;;
35324;SDS011;35135;47.510;19.036;2023-10-09T06:11:12;11.90;;;2.95;;
35324;SDS011;35135;47.510;19.036;2023-10-09T06:13:58;10.90;;;2.83;;
35324;SDS011;35135;47.510;19.036;2023-10-09T06:16:32;10.38;;;2.88;;
35324;SDS011;35135;47.510;19.036;2023-10-09T06:19:11;8.65;;;2.53;;
35324;SDS011;35135;47.510;19.036;2023-10-09T06:21:55;9.20;;;2.60;;
35324;SDS011;35135;47.510;19.036;2023-10-09T06:24:42;8.38;;;2.60;;
35324;SDS011;35135;47.510;19.036;2023-10-09T06:27:20;10.50;;;3.40;;
35324;SDS011;35135;47.510;19.036;2023-10-09T06:30:10;10.10;;;2.88;;
35324;SDS011;35135;47.510;19.036;2023-10-09T06:32:39;8.63;;;2.60;;
35324;SDS011;35135;47.510;19.036;2023-10-09T06:35:23;9.10;;;3.13;;
35324;SDS011;35135;47.510;19.036;2023-10-09T06:37:58;8.98;;;2.42;;
35324;SDS011;35135;47.510;19.036;2023-10-09T06:40:28;9.15;;;2.78;;
35324;SDS011;35135;47.510;19.036;2023-10-09T06:43:12;10.82;;;2.85;;
35324;SDS011;35135;47.510;19.036;2023-10-09T06:45:47;7.07;;;2.17;;
35324;SDS011;35135;47.510;19.036;2023-10-09T06:48:22;10.63;;;2.30;;
35324;SDS011;35135;47.510;19.036;2023-10-09T06:51:04;8.57;;;2.33;;
35324;SDS011;35135;47.510;19.036;2023-10-09T06:53:50;6.43;;;2.28;;
35324;SDS011;35135;47.510;19.036;2023-10-09T06:56:19;9.88;;;2.70;;
35324;SDS011;35135;47.510;19.036;2023-10-09T06:58:54;5.10;;;2.22;;
35324;SDS011;35135;47.510;19.036;2023-10-09T07:01:20;8.15;;;2.15;;
35324;SDS011;35135;47.510;19.036;2023-10-09T07:03:53;8.75;;;2.58;;
35324;SDS011;35135;47.510;19.036;2023-10-09T07:06:19;5.20;;;2.03;;
35324;SDS011;35135;47.510;19.036;2023-10-09T07:09:00;7.33;;;2.23;;
35324;SDS011;35135;47.510;19.036;2023-10-09T07:11:36;7.93;;;2.33;;
35324;SDS011;35135;47.510;19.036;2023-10-09T07:14:12;6.97;;;2.10;;
35324;SDS011;35135;47.510;19.036;2023-10-09T07:16:58;6.78;;;2.30;;
35324;SDS011;35135;47.510;19.036;2023-10-09T07:19:43;9.23;;;2.35;;
35324;SDS011;35135;47.510;19.036;2023-10-09T07:22:10;7.72;;;2.47;;
35324;SDS011;35135;47.510;19.036;2023-10-09T07:24:48;6.72;;;2.33;;
35324;SDS011;35135;47.510;19.036;2023-10-09T07:27:25;5.95;;;1.88;;
35324;SDS011;35135;47.510;19.036;2023-10-09T07:30:15;5.20;;;1.90;;
35324;SDS011;35135;47.510;19.036;2023-10-09T07:32:55;6.20;;;1.92;;
35324;SDS011;35135;47.510;19.036;2023-10-09T07:35:21;4.78;;;2.10;;
35324;SDS011;35135;47.510;19.036;2023-10-09T07:38:05;5.90;;;1.75;;
35324;SDS011;35135;47.510;19.036;2023-10-09T07:40:34;5.32;;;2.00;;
35324;SDS011;35135;47.510;19.036;2023-10-09T07:43:25;5.95;;;2.03;;
35324;SDS011;35135;47.510;19.036;2023-10-09T07:46:11;4.65;;;1.88;;
35324;SDS011;35135;47.510;19.036;2023-10-09T07:49:17;4.82;;;1.70;;
35324;SDS011;35135;47.510;19.036;2023-10-09T07:51:50;5.35;;;2.22;;
35324;SDS011;35135;47.510;19.036;2023-10-09T07:54:18;3.42;;;1.98;;
35324;SDS011;35135;47.510;19.036;2023-10-09T07:56:57;3.72;;;1.90;;
35324;SDS011;35135;47.510;19.036;2023-10-09T07:59:42;5.50;;;1.95;;
35324;SDS011;35135;47.510;19.036;2023-10-09T08:02:26;4.72;;;1.90;;
35324;SDS011;35135;47.510;19.036;2023-10-09T08:04:59;5.72;;;1.90;;
35324;SDS011;35135;47.510;19.036;2023-10-09T08:07:44;4.57;;;1.90;;
35324;SDS011;35135;47.510;19.036;2023-10-09T08:10:30;4.20;;;1.95;;
35324;SDS011;35135;47.510;19.036;2023-10-09T08:12:55;3.05;;;1.40;;
35324;SDS011;35135;47.510;19.036;2023-10-09T08:15:25;3.00;;;1.65;;
35324;SDS011;35135;47.510;19.036;2023-10-09T08:18:12;5.28;;;1.88;;
35324;SDS011;35135;47.510;19.036;2023-10-09T08:20:53;4.07;;;1.83;;
35324;SDS011;35135;47.510;19.036;2023-10-09T08:23:22;4.85;;;2.17;;
35324;SDS011;35135;47.510;19.036;2023-10-09T08:26:04;4.38;;;1.73;;
35324;SDS011;35135;47.510;19.036;2023-10-09T08:28:42;3.75;;;1.80;;
35324;SDS011;35135;47.510;19.036;2023-10-09T08:31:12;2.83;;;1.65;;
35324;SDS011;35135;47.510;19.036;2023-10-09T08:33:59;4.20;;;1.40;;
35324;SDS011;35135;47.510;19.036;2023-10-09T08:36:26;3.83;;;1.58;;
35324;SDS011;35135;47.510;19.036;2023-10-09T08:39:01;3.47;;;1.75;;
35324;SDS011;35135;47.510;19.036;2023-10-09T08:41:48;5.03;;;1.63;;
35324;SDS011;35135;47.510;19.036;2023-10-09T08:44:14;3.30;;;1.60;;
35324;SDS011;35135;47.510;19.036;2023-10-09T08:46:47;3.42;;;1.38;;
35324;SDS011;35135;47.510;19.036;2023-10-09T08:49:15;4.20;;;1.50;;
35324;SDS011;35135;47.510;19.036;2023-10-09T08:51:41;4.15;;;1.52;;
35324;SDS011;35135;47.510;19.036;2023-10-09T08:54:07;3.80;;;1.75;;
35324;SDS011;35135;47.510;19.036;2023-10-09T08:56:36;2.63;;;1.50;;
35324;SDS011;35135;47.510;19.036;2023-10-09T08:59:04;3.67;;;1.50;;
35324;SDS011;35135;47.510;19.036;2023-10-09T09:01:30;2.72;;;1.40;;
35324;SDS011;35135;47.510;19.036;2023-10-09T09:03:59;2.72;;;1.35;;
35324;SDS011;35135;47.510;19.036;2023-10-09T09:06:27;3.65;;;1.50;;
35324;SDS011;35135;47.510;19.036;2023-10-09T09:09:11;3.28;;;1.52;;
35324;SDS011;35135;47.510;19.036;2023-10-09T09:11:41;3.22;;;1.30;;
35324;SDS011;35135;47.510;19.036;2023-10-09T09:14:13;2.05;;;1.30;;
35324;SDS011;35135;47.510;19.036;2023-10-09T09:16:44;3.15;;;1.20;;
35324;SDS011;35135;47.510;19.036;2023-10-09T09:19:13;4.00;;;1.40;;
35324;SDS011;35135;47.510;19.036;2023-10-09T09:21:52;3.03;;;1.25;;
35324;SDS011;35135;47.510;19.036;2023-10-09T09:24:35;2.35;;;1.33;;
35324;SDS011;35135;47.510;19.036;2023-10-09T09:27:02;2.20;;;1.40;;
35324;SDS011;35135;47.510;19.036;2023-10-09T09:32:10;2.53;;;1.25;;
35324;SDS011;35135;47.510;19.036;2023-10-09T09:34:52;3.63;;;1.58;;
35324;SDS011;35135;47.510;19.036;2023-10-09T09:37:33;2.85;;;1.50;;
35324;SDS011;35135;47.510;19.036;2023-10-09T09:40:08;3.83;;;1.38;;
35324;SDS011;35135;47.510;19.036;2023-10-09T09:42:54;3.13;;;1.27;;
35324;SDS011;35135;47.510;19.036;2023-10-09T09:45:30;2.58;;;1.20;;
35324;SDS011;35135;47.510;19.036;2023-10-09T09:48:02;1.58;;;1.05;;
35324;SDS011;35135;47.510;19.036;2023-10-09T09:50:31;3.13;;;1.38;;
35324;SDS011;35135;47.510;19.036;2023-10-09T09:52:58;2.60;;;1.40;;
35324;SDS011;35135;47.510;19.036;2023-10-09T09:55:26;2.50;;;0.98;;
35324;SDS011;35135;47.510;19.036;2023-10-09T09:57:59;2.00;;;1.40;;
35324;SDS011;35135;47.510;19.036;2023-10-09T10:00:33;3.13;;;1.48;;
35324;SDS011;35135;47.510;19.036;2023-10-09T10:03:11;3.00;;;1.13;;
35324;SDS011;35135;47.510;19.036;2023-10-09T10:05:43;2.35;;;1.30;;
35324;SDS011;35135;47.510;19.036;2023-10-09T10:08:11;2.10;;;0.95;;
35324;SDS011;35135;47.510;19.036;2023-10-09T10:10:45;2.47;;;1.10;;
35324;SDS011;35135;47.510;19.036;2023-10-09T10:18:30;2.47;;;1.20;;
35324;SDS011;35135;47.510;19.036;2023-10-09T10:21:09;1.70;;;1.05;;
35324;SDS011;35135;47.510;19.036;2023-10-09T10:23:41;2.60;;;1.08;;
35324;SDS011;35135;47.510;19.036;2023-10-09T10:26:18;2.00;;;0.93;;
35324;SDS011;35135;47.510;19.036;2023-10-09T10:31:58;1.83;;;1.27;;
35324;SDS011;35135;47.510;19.036;2023-10-09T10:35:05;2.53;;;1.25;;
35324;SDS011;35135;47.510;19.036;2023-10-09T10:37:37;3.60;;;1.13;;
35324;SDS011;35135;47.510;19.036;2023-10-09T10:40:24;2.25;;;1.20;;
35324;SDS011;35135;47.510;19.036;2023-10-09T10:43:14;2.40;;;0.93;;
35324;SDS011;35135;47.510;19.036;2023-10-09T10:46:06;2.63;;;1.25;;
35324;SDS011;35135;47.510;19.036;2023-10-09T10:48:49;1.88;;;1.00;;
35324;SDS011;35135;47.510;19.036;2023-10-09T10:51:24;1.08;;;0.80;;
35324;SDS011;35135;47.510;19.036;2023-10-09T10:54:08;1.67;;;0.80;;
35324;SDS011;35135;47.510;19.036;2023-10-09T10:56:53;2.15;;;1.48;;
35324;SDS011;35135;47.510;19.036;2023-10-09T10:59:22;3.10;;;1.08;;
35324;SDS011;35135;47.510;19.036;2023-10-09T11:01:49;1.75;;;1.10;;
35324;SDS011;35135;47.510;19.036;2023-10-09T11:04:19;3.25;;;1.10;;
35324;SDS011;35135;47.510;19.036;2023-10-09T11:06:57;1.45;;;1.02;;
35324;SDS011;35135;47.510;19.036;2023-10-09T11:09:48;2.50;;;1.10;;
35324;SDS011;35135;47.510;19.036;2023-10-09T11:12:30;2.85;;;1.30;;
35324;SDS011;35135;47.510;19.036;2023-10-09T11:15:10;2.38;;;1.10;;
35324;SDS011;35135;47.510;19.036;2023-10-09T11:18:02;2.22;;;1.33;;
35324;SDS011;35135;47.510;19.036;2023-10-09T11:20:35;1.90;;;1.02;;
35324;SDS011;35135;47.510;19.036;2023-10-09T11:23:03;1.65;;;0.90;;
35324;SDS011;35135;47.510;19.036;2023-10-09T11:25:43;2.33;;;0.90;;
35324;SDS011;35135;47.510;19.036;2023-10-09T11:28:40;2.25;;;0.95;;
35324;SDS011;35135;47.510;19.036;2023-10-09T11:31:14;2.72;;;1.52;;
35324;SDS011;35135;47.510;19.036;2023-10-09T11:33:47;2.05;;;1.17;;
35324;SDS011;35135;47.510;19.036;2023-10-09T11:36:14;2.00;;;0.88;;
35324;SDS011;35135;47.510;19.036;2023-10-09T11:38:41;2.63;;;1.27;;
35324;SDS011;35135;47.510;19.036;2023-10-09T11:41:16;1.48;;;0.85;;
35324;SDS011;35135;47.510;19.036;2023-10-09T11:43:49;1.20;;;0.73;;
35324;SDS011;35135;47.510;19.036;2023-10-09T11:46:17;1.38;;;0.80;;
35324;SDS011;35135;47.510;19.036;2023-10-09T11:49:06;1.65;;;0.95;;
35324;SDS011;35135;47.510;19.036;2023-10-09T11:51:44;2.53;;;0.90;;
35324;SDS011;35135;47.510;19.036;2023-10-09T11:54:30;3.75;;;0.90;;
35324;SDS011;35135;47.510;19.036;2023-10-09T11:56:58;2.13;;;1.00;;
35324;SDS011;35135;47.510;19.036;2023-10-09T11:59:26;1.60;;;1.00;;
35324;SDS011;35135;47.510;19.036;2023-10-09T12:01:52;2.05;;;0.80;;
35324;SDS011;35135;47.510;19.036;2023-10-09T12:04:26;1.27;;;0.98;;
35324;SDS011;35135;47.510;19.036;2023-10-09T12:06:55;1.80;;;0.90;;
35324;SDS011;35135;47.510;19.036;2023-10-09T12:09:35;1.88;;;1.10;;
35324;SDS011;35135;47.510;19.036;2023-10-09T12:12:02;1.92;;;1.00;;
35324;SDS011;35135;47.510;19.036;2023-10-09T12:14:29;1.63;;;0.98;;
35324;SDS011;35135;47.510;19.036;2023-10-09T12:17:03;1.60;;;1.10;;
35324;SDS011;35135;47.510;19.036;2023-10-09T12:19:36;1.38;;;0.80;;
35324;SDS011;35135;47.510;19.036;2023-10-09T12:22:04;2.22;;;0.82;;
35324;SDS011;35135;47.510;19.036;2023-10-09T12:24:32;1.23;;;0.80;;
35324;SDS011;35135;47.510;19.036;2023-10-09T12:26:59;1.52;;;0.75;;
35324;SDS011;35135;47.510;19.036;2023-10-09T12:29:25;2.20;;;1.00;;
35324;SDS011;35135;47.510;19.036;2023-10-09T12:31:55;2.20;;;1.10;;
35324;SDS011;35135;47.510;19.036;2023-10-09T12:34:25;2.58;;;1.20;;
35324;SDS011;35135;47.510;19.036;2023-10-09T12:36:54;1.77;;;0.82;;
35324;SDS011;35135;47.510;19.036;2023-10-09T12:39:20;1.55;;;1.00;;
35324;SDS011;35135;47.510;19.036;2023-10-09T12:41:47;1.50;;;0.80;;
35324;SDS011;35135;47.510;19.036;2023-10-09T12:44:13;2.13;;;1.05;;
35324;SDS011;35135;47.510;19.036;2023-10-09T12:46:45;1.52;;;0.90;;
35324;SDS011;35135;47.510;19.036;2023-10-09T12:49:23;2.47;;;0.98;;
35324;SDS011;35135;47.510;19.036;2023-10-09T12:51:51;1.53;;;0.80;;
35324;SDS011;35135;47.510;19.036;2023-10-09T12:54:18;1.35;;;0.88;;
35324;SDS011;35135;47.510;19.036;2023-10-09T12:56:52;2.33;;;0.93;;
35324;SDS011;35135;47.510;19.036;2023-10-09T12:59:18;2.63;;;1.00;;
35324;SDS011;35135;47.510;19.036;2023-10-09T13:01:46;1.50;;;0.90;;
35324;SDS011;35135;47.510;19.036;2023-10-09T13:04:17;1.70;;;1.02;;
35324;SDS011;35135;47.510;19.036;2023-10-09T13:06:43;1.40;;;0.90;;
35324;SDS011;35135;47.510;19.036;2023-10-09T13:09:10;1.80;;;1.00;;
35324;SDS011;35135;47.510;19.036;2023-10-09T13:11:38;2.20;;;1.25;;
35324;SDS011;35135;47.510;19.036;2023-10-09T13:14:05;1.75;;;1.00;;
35324;SDS011;35135;47.510;19.036;2023-10-09T13:16:51;1.95;;;0.93;;
35324;SDS011;35135;47.510;19.036;2023-10-09T13:19:18;1.92;;;0.98;;
35324;SDS011;35135;47.510;19.036;2023-10-09T13:21:44;1.52;;;1.00;;
35324;SDS011;35135;47.510;19.036;2023-10-09T13:24:10;2.65;;;0.80;;
35324;SDS011;35135;47.510;19.036;2023-10-09T13:26:40;2.17;;;0.85;;
35324;SDS011;35135;47.510;19.036;2023-10-09T13:29:10;1.75;;;0.90;;
35324;SDS011;35135;47.510;19.036;2023-10-09T13:31:36;1.77;;;0.82;;
35324;SDS011;35135;47.510;19.036;2023-10-09T13:34:06;1.90;;;1.13;;
35324;SDS011;35135;47.510;19.036;2023-10-09T13:36:34;1.27;;;0.88;;
35324;SDS011;35135;47.510;19.036;2023-10-09T13:39:05;1.30;;;0.82;;
35324;SDS011;35135;47.510;19.036;2023-10-09T13:41:48;1.40;;;1.00;;
35324;SDS011;35135;47.510;19.036;2023-10-09T13:44:23;1.98;;;0.85;;
35324;SDS011;35135;47.510;19.036;2023-10-09T13:46:56;2.22;;;0.90;;
35324;SDS011;35135;47.510;19.036;2023-10-09T13:49:23;1.80;;;1.02;;
35324;SDS011;35135;47.510;19.036;2023-10-09T13:51:54;2.17;;;1.00;;
35324;SDS011;35135;47.510;19.036;2023-10-09T13:54:25;1.17;;;0.90;;
35324;SDS011;35135;47.510;19.036;2023-10-09T13:56:57;3.85;;;1.17;;
35324;SDS011;35135;47.510;19.036;2023-10-09T13:59:23;2.47;;;1.02;;
35324;SDS011;35135;47.510;19.036;2023-10-09T14:01:50;2.28;;;0.90;;
35324;SDS011;35135;47.510;19.036;2023-10-09T14:04:19;1.65;;;1.02;;
35324;SDS011;35135;47.510;19.036;2023-10-09T14:06:46;4.22;;;1.48;;
35324;SDS011;35135;47.510;19.036;2023-10-09T14:09:22;2.40;;;1.30;;
35324;SDS011;35135;47.510;19.036;2023-10-09T14:12:14;3.28;;;1.23;;
35324;SDS011;35135;47.510;19.036;2023-10-09T14:14:44;3.30;;;1.63;;
35324;SDS011;35135;47.510;19.036;2023-10-09T14:19:53;4.47;;;2.08;;
35324;SDS011;35135;47.510;19.036;2023-10-09T14:22:21;4.40;;;1.80;;
35324;SDS011;35135;47.510;19.036;2023-10-09T14:24:51;5.40;;;2.13;;
35324;SDS011;35135;47.510;19.036;2023-10-09T14:27:22;4.88;;;1.88;;
35324;SDS011;35135;47.510;19.036;2023-10-09T14:29:54;10.50;;;2.70;;
35324;SDS011;35135;47.510;19.036;2023-10-09T14:32:22;5.43;;;2.33;;
35324;SDS011;35135;47.510;19.036;2023-10-09T14:34:54;10.70;;;2.58;;
35324;SDS011;35135;47.510;19.036;2023-10-09T14:37:25;9.38;;;2.83;;
35324;SDS011;35135;47.510;19.036;2023-10-09T14:39:57;14.68;;;2.97;;
35324;SDS011;35135;47.510;19.036;2023-10-09T14:42:23;9.68;;;2.47;;
35324;SDS011;35135;47.510;19.036;2023-10-09T14:44:52;7.60;;;2.13;;
35324;SDS011;35135;47.510;19.036;2023-10-09T14:47:20;8.48;;;2.50;;
35324;SDS011;35135;47.510;19.036;2023-10-09T14:49:49;8.38;;;2.50;;
35324;SDS011;35135;47.510;19.036;2023-10-09T14:52:15;8.40;;;3.05;;
35324;SDS011;35135;47.510;19.036;2023-10-09T14:54:45;8.25;;;2.50;;
35324;SDS011;35135;47.510;19.036;2023-10-09T14:57:12;9.13;;;2.47;;
35324;SDS011;35135;47.510;19.036;2023-10-09T14:59:38;14.93;;;3.28;;
35324;SDS011;35135;47.510;19.036;2023-10-09T15:02:05;10.02;;;2.60;;
35324;SDS011;35135;47.510;19.036;2023-10-09T15:04:32;12.82;;;3.10;;
35324;SDS011;35135;47.510;19.036;2023-10-09T15:07:01;13.35;;;3.53;;
35324;SDS011;35135;47.510;19.036;2023-10-09T15:09:27;13.23;;;3.65;;
35324;SDS011;35135;47.510;19.036;2023-10-09T15:11:56;13.45;;;3.45;;
35324;SDS011;35135;47.510;19.036;2023-10-09T15:14:23;14.25;;;3.90;;
35324;SDS011;35135;47.510;19.036;2023-10-09T15:16:48;15.25;;;4.07;;
35324;SDS011;35135;47.510;19.036;2023-10-09T15:19:15;8.27;;;3.25;;
35324;SDS011;35135;47.510;19.036;2023-10-09T15:21:41;9.90;;;3.45;;
35324;SDS011;35135;47.510;19.036;2023-10-09T15:24:10;11.85;;;3.75;;
35324;SDS011;35135;47.510;19.036;2023-10-09T15:26:46;10.88;;;3.67;;
35324;SDS011;35135;47.510;19.036;2023-10-09T15:29:19;9.70;;;3.58;;